createdAt,value
2019-02-06T00:00:42.901Z,34.00
2019-02-06T00:03:16.847Z,35.20
2019-02-06T00:05:51.546Z,36.80
2019-02-06T00:08:25.282Z,37.70
2019-02-06T00:10:58.221Z,38.10
2019-02-06T00:13:31.325Z,38.30
2019-02-06T00:16:03.913Z,38.50
2019-02-06T00:18:37.408Z,38.60
2019-02-06T00:21:10.104Z,38.80
2019-02-06T00:23:42.922Z,38.90
2019-02-06T00:26:15.780Z,39.10
2019-02-06T00:28:48.350Z,39.30
2019-02-06T00:31:20.928Z,39.40
2019-02-06T00:33:53.546Z,39.50
2019-02-06T00:36:25.907Z,39.70
2019-02-06T00:38:58.818Z,39.70
2019-02-06T00:41:31.520Z,39.80
2019-02-06T00:44:04.045Z,40.00
2019-02-06T00:46:36.719Z,40.10
2019-02-06T00:49:09.460Z,40.20
2019-02-06T00:51:42.069Z,40.40
2019-02-06T00:54:14.451Z,40.50
2019-02-06T00:56:47.402Z,40.80
2019-02-06T00:59:20.357Z,40.70
2019-02-06T01:02:11.247Z,40.70
2019-02-06T01:04:48.681Z,39.50
2019-02-06T01:07:24.734Z,37.30
2019-02-06T01:09:59.275Z,35.70
2019-02-06T01:12:31.682Z,34.30
2019-02-06T01:15:09.855Z,33.30
2019-02-06T01:17:42.734Z,32.40
2019-02-06T01:20:19.627Z,31.60
2019-02-06T01:22:52.335Z,30.90
2019-02-06T01:25:25.675Z,30.80
2019-02-06T01:28:00.873Z,32.00
2019-02-06T01:30:35.008Z,33.20
2019-02-06T01:33:07.574Z,34.60
2019-02-06T01:35:49.581Z,35.70
2019-02-06T01:38:14.245Z,36.80
2019-02-06T01:40:51.176Z,38.00
2019-02-06T01:43:24.712Z,37.50
2019-02-06T01:45:57.638Z,37.70
2019-02-06T01:48:30.260Z,37.30
2019-02-06T01:51:03.856Z,38.10
2019-02-06T01:53:43.634Z,38.40
2019-02-06T01:56:18.458Z,38.40
2019-02-06T01:58:51.006Z,38.60
2019-02-06T02:01:27.401Z,38.80
2019-02-06T02:03:59.968Z,38.90
2019-02-06T02:06:43.767Z,39.10
2019-02-06T02:09:17.668Z,39.90
2019-02-06T02:11:50.674Z,39.40
2019-02-06T02:14:24.263Z,39.60
2019-02-06T02:16:57.557Z,39.70
2019-02-06T02:19:33.487Z,40.00
2019-02-06T02:22:15.023Z,40.20
2019-02-06T02:24:47.679Z,39.90
2019-02-06T02:27:20.423Z,37.70
2019-02-06T02:29:55.374Z,36.00
2019-02-06T02:32:28.108Z,34.50
2019-02-06T02:35:01.219Z,33.00
2019-02-06T02:37:34.158Z,31.70
2019-02-06T02:40:09.283Z,30.70
2019-02-06T02:42:42.568Z,30.00
2019-02-06T02:45:17.255Z,29.60
2019-02-06T02:47:51.128Z,29.90
2019-02-06T02:50:41.847Z,29.00
2019-02-06T02:53:15.354Z,29.20
2019-02-06T02:55:49.484Z,31.10
2019-02-06T02:58:23.222Z,32.30
2019-02-06T03:00:57.086Z,32.70
2019-02-06T03:03:43.137Z,33.10
2019-02-06T03:06:27.809Z,33.50
2019-02-06T03:08:50.844Z,33.60
2019-02-06T03:11:23.405Z,34.20
2019-02-06T03:13:55.891Z,34.50
2019-02-06T03:16:28.676Z,34.80
2019-02-06T03:19:01.383Z,35.10
2019-02-06T03:21:33.765Z,35.40
2019-02-06T03:24:06.423Z,36.10
2019-02-06T03:26:38.926Z,36.20
2019-02-06T03:29:11.975Z,36.70
2019-02-06T03:31:44.369Z,37.10
2019-02-06T03:34:16.828Z,37.40
2019-02-06T03:36:49.325Z,37.50
2019-02-06T03:39:21.951Z,37.70
2019-02-06T03:41:54.501Z,38.00
2019-02-06T03:44:26.844Z,38.30
2019-02-06T03:46:59.728Z,38.50
2019-02-06T03:49:31.910Z,38.80
2019-02-06T03:52:04.576Z,39.10
2019-02-06T03:54:37.042Z,39.00
2019-02-06T03:57:09.367Z,37.90
2019-02-06T03:59:41.878Z,35.90
2019-02-06T04:02:14.579Z,34.70
2019-02-06T04:04:47.323Z,35.70
2019-02-06T04:07:19.552Z,36.60
2019-02-06T04:09:51.818Z,36.40
2019-02-06T04:12:24.016Z,35.00
2019-02-06T04:14:56.376Z,33.60
2019-02-06T04:17:29.085Z,32.50
2019-02-06T04:20:02.182Z,31.80
2019-02-06T04:22:35.117Z,31.10
2019-02-06T04:25:09.156Z,30.50
2019-02-06T04:27:42.102Z,30.00
2019-02-06T04:30:17.227Z,29.80
2019-02-06T04:32:50.399Z,29.40
2019-02-06T04:35:23.074Z,29.40
2019-02-06T04:37:55.755Z,30.10
2019-02-06T04:40:28.168Z,31.20
2019-02-06T04:43:00.544Z,32.60
2019-02-06T04:45:33.110Z,33.40
2019-02-06T04:48:05.695Z,34.00
2019-02-06T04:50:38.327Z,34.50
2019-02-06T04:53:10.676Z,35.00
2019-02-06T04:55:43.455Z,35.50
2019-02-06T04:58:16.106Z,35.70
2019-02-06T05:00:48.507Z,36.00
2019-02-06T05:03:21.342Z,36.40
2019-02-06T05:05:54.169Z,36.60
2019-02-06T05:08:26.597Z,36.80
2019-02-06T05:10:59.099Z,37.10
2019-02-06T05:13:31.445Z,37.40
2019-02-06T05:16:03.854Z,37.40
2019-02-06T05:18:37.054Z,37.70
2019-02-06T05:21:10.073Z,38.00
2019-02-06T05:23:42.429Z,37.70
2019-02-06T05:26:15.174Z,37.90
2019-02-06T05:28:47.759Z,38.10
2019-02-06T05:31:20.374Z,38.30
2019-02-06T05:33:52.865Z,38.50
2019-02-06T05:36:25.140Z,36.80
2019-02-06T05:38:57.523Z,35.20
2019-02-06T05:41:29.953Z,33.80
2019-02-06T05:44:02.766Z,32.70
2019-02-06T05:46:35.414Z,31.90
2019-02-06T05:49:08.465Z,32.20
2019-02-06T05:51:41.022Z,32.90
2019-02-06T05:54:13.546Z,34.60
2019-02-06T05:56:46.004Z,35.60
2019-02-06T05:59:18.366Z,36.10
2019-02-06T06:01:50.754Z,36.70
2019-02-06T06:04:23.319Z,37.20
2019-02-06T06:06:55.775Z,37.40
2019-02-06T06:09:28.253Z,37.80
2019-02-06T06:12:00.993Z,38.20
2019-02-06T06:14:33.557Z,38.50
2019-02-06T06:17:05.931Z,38.50
2019-02-06T06:19:38.413Z,38.70
2019-02-06T06:22:11.406Z,38.70
2019-02-06T06:24:43.728Z,38.80
2019-02-06T06:27:16.040Z,38.80
2019-02-06T06:29:48.240Z,38.80
2019-02-06T06:32:20.442Z,38.80
2019-02-06T06:34:52.709Z,39.00
2019-02-06T06:37:25.187Z,39.10
2019-02-06T06:39:57.454Z,39.20
2019-02-06T06:42:29.652Z,39.20
2019-02-06T06:45:02.054Z,39.30
2019-02-06T06:47:34.531Z,39.40
2019-02-06T06:50:09.263Z,39.40
2019-02-06T06:52:41.568Z,39.40
2019-02-06T06:55:15.589Z,39.50
2019-02-06T06:57:48.160Z,39.60
2019-02-06T07:00:31.489Z,39.60
2019-02-06T07:03:04.339Z,39.70
2019-02-06T07:05:37.015Z,39.70
2019-02-06T07:08:13.432Z,38.40
2019-02-06T07:10:43.912Z,36.90
2019-02-06T07:13:16.394Z,35.60
2019-02-06T07:15:49.303Z,34.40
2019-02-06T07:18:21.761Z,33.50
2019-02-06T07:20:54.331Z,32.50
2019-02-06T07:23:27.262Z,32.00
2019-02-06T07:25:59.860Z,31.30
2019-02-06T07:28:32.436Z,30.80
2019-02-06T07:31:06.496Z,30.20
2019-02-06T07:33:39.063Z,30.00
2019-02-06T07:36:11.520Z,29.60
2019-02-06T07:38:44.149Z,29.30
2019-02-06T07:41:16.673Z,29.70
2019-02-06T07:43:49.335Z,30.50
2019-02-06T07:46:22.385Z,31.90
2019-02-06T07:48:55.126Z,33.50
2019-02-06T07:51:27.648Z,34.40
2019-02-06T07:54:00.040Z,34.90
2019-02-06T07:56:32.507Z,35.50
2019-02-06T07:59:05.474Z,35.80
2019-02-06T08:01:38.362Z,35.90
2019-02-06T08:04:10.862Z,36.30
2019-02-06T08:06:43.334Z,36.50
2019-02-06T08:09:15.786Z,36.80
2019-02-06T08:11:48.273Z,36.90
2019-02-06T08:14:20.972Z,37.00
2019-02-06T08:16:53.648Z,37.30
2019-02-06T08:19:26.021Z,37.40
2019-02-06T08:21:58.518Z,37.60
2019-02-06T08:24:31.606Z,37.80
2019-02-06T08:27:04.342Z,37.60
2019-02-06T08:29:36.729Z,37.80
2019-02-06T08:32:09.740Z,37.80
2019-02-06T08:34:42.525Z,38.10
2019-02-06T08:37:14.926Z,37.90
2019-02-06T08:39:47.338Z,38.10
2019-02-06T08:42:19.944Z,38.30
2019-02-06T08:44:52.346Z,38.30
2019-02-06T08:47:25.372Z,38.50
2019-02-06T08:49:58.273Z,37.20
2019-02-06T08:52:30.774Z,35.90
2019-02-06T08:55:03.615Z,34.60
2019-02-06T08:57:36.674Z,33.60
2019-02-06T09:00:11.646Z,33.50
2019-02-06T09:02:44.135Z,32.00
2019-02-06T09:05:16.879Z,31.30
2019-02-06T09:07:50.009Z,30.80
2019-02-06T09:10:24.525Z,30.30
2019-02-06T09:12:57.481Z,29.90
2019-02-06T09:15:30.140Z,29.70
2019-02-06T09:18:02.643Z,29.40
2019-02-06T09:20:34.986Z,29.10
2019-02-06T09:23:07.604Z,28.90
2019-02-06T09:25:40.628Z,28.60
2019-02-06T09:28:13.288Z,28.40
2019-02-06T09:30:45.835Z,28.40
2019-02-06T09:33:18.434Z,29.10
2019-02-06T09:35:51.221Z,30.40
2019-02-06T09:38:23.729Z,32.00
2019-02-06T09:40:56.092Z,32.80
2019-02-06T09:43:28.587Z,33.40
2019-02-06T09:46:01.408Z,34.00
2019-02-06T09:48:34.264Z,34.40
2019-02-06T09:51:06.829Z,34.80
2019-02-06T09:53:39.717Z,35.10
2019-02-06T09:56:12.688Z,35.30
2019-02-06T09:58:45.189Z,35.60
2019-02-06T10:01:17.968Z,35.70
2019-02-06T10:03:50.450Z,36.00
2019-02-06T10:06:23.303Z,36.00
2019-02-06T10:08:55.882Z,36.20
2019-02-06T10:11:28.241Z,36.30
2019-02-06T10:14:00.764Z,36.50
2019-02-06T10:16:33.718Z,36.40
2019-02-06T10:19:06.335Z,36.80
2019-02-06T10:21:39.096Z,36.80
2019-02-06T10:24:11.846Z,36.90
2019-02-06T10:26:44.446Z,37.00
2019-02-06T10:29:16.958Z,36.10
2019-02-06T10:31:49.706Z,34.90
2019-02-06T10:34:22.355Z,33.80
2019-02-06T10:36:54.953Z,32.80
2019-02-06T10:39:34.323Z,31.80
2019-02-06T10:42:01.326Z,31.20
2019-02-06T10:44:34.178Z,30.50
2019-02-06T10:47:06.853Z,30.00
2019-02-06T10:49:39.207Z,29.70
2019-02-06T10:52:12.061Z,29.40
2019-02-06T10:54:44.822Z,29.10
2019-02-06T10:57:17.218Z,28.80
2019-02-06T10:59:49.817Z,28.60
2019-02-06T11:02:22.553Z,29.20
2019-02-06T11:04:55.500Z,30.00
2019-02-06T11:07:27.983Z,31.50
2019-02-06T11:10:00.540Z,32.70
2019-02-06T11:12:33.346Z,33.30
2019-02-06T11:15:07.199Z,33.90
2019-02-06T11:17:39.817Z,34.20
2019-02-06T11:20:24.370Z,34.60
2019-02-06T11:22:57.119Z,34.90
2019-02-06T11:25:29.757Z,35.10
2019-02-06T11:28:02.852Z,35.40
2019-02-06T11:30:40.638Z,35.70
2019-02-06T11:33:13.402Z,35.90
2019-02-06T11:35:45.977Z,36.00
2019-02-06T11:38:18.667Z,36.10
2019-02-06T11:40:51.152Z,36.30
2019-02-06T11:43:23.616Z,36.50
2019-02-06T11:45:56.116Z,36.60
2019-02-06T11:48:28.693Z,36.60
2019-02-06T11:51:01.257Z,36.80
2019-02-06T11:53:34.626Z,36.90
2019-02-06T11:56:07.210Z,36.90
2019-02-06T11:58:39.727Z,37.10
2019-02-06T12:01:13.700Z,36.10
2019-02-06T12:03:46.266Z,34.90
2019-02-06T12:06:18.819Z,33.60
2019-02-06T12:08:51.314Z,32.60
2019-02-06T12:11:23.769Z,31.60
2019-02-06T12:13:56.425Z,31.00
2019-02-06T12:16:29.002Z,30.40
2019-02-06T12:19:01.577Z,29.90
2019-02-06T12:21:34.064Z,29.50
2019-02-06T12:24:06.993Z,29.20
2019-02-06T12:26:39.562Z,28.90
2019-02-06T12:29:12.978Z,28.60
2019-02-06T12:31:45.445Z,28.40
2019-02-06T12:34:18.069Z,28.10
2019-02-06T12:36:50.559Z,27.90
2019-02-06T12:39:23.201Z,27.80
2019-02-06T12:41:55.767Z,27.60
2019-02-06T12:44:28.358Z,27.50
2019-02-06T12:47:00.738Z,27.30
2019-02-06T12:49:33.692Z,27.20
2019-02-06T12:52:06.690Z,27.10
2019-02-06T12:54:39.825Z,26.90
2019-02-06T12:57:12.885Z,26.80
2019-02-06T12:59:45.383Z,27.20
2019-02-06T13:02:18.150Z,28.10
2019-02-06T13:04:50.753Z,29.20
2019-02-06T13:07:23.141Z,30.30
2019-02-06T13:09:55.901Z,30.90
2019-02-06T13:12:28.431Z,31.60
2019-02-06T13:15:01.832Z,32.10
2019-02-06T13:17:35.502Z,32.40
2019-02-06T13:20:10.387Z,32.80
2019-02-06T13:22:43.057Z,33.10
2019-02-06T13:25:16.222Z,33.50
2019-02-06T13:27:48.641Z,33.60
2019-02-06T13:30:29.605Z,33.90
2019-02-06T13:33:01.985Z,33.90
2019-02-06T13:35:34.559Z,34.40
2019-02-06T13:38:07.450Z,34.30
2019-02-06T13:40:45.703Z,34.40
2019-02-06T13:43:13.815Z,34.60
2019-02-06T13:45:48.474Z,34.90
2019-02-06T13:48:20.945Z,34.70
2019-02-06T13:50:53.610Z,33.50
2019-02-06T13:53:25.989Z,32.40
2019-02-06T13:55:58.765Z,31.40
2019-02-06T13:58:31.203Z,30.40
2019-02-06T14:01:03.758Z,29.80
2019-02-06T14:03:36.146Z,29.30
2019-02-06T14:06:11.284Z,29.00
2019-02-06T14:08:43.992Z,28.60
2019-02-06T14:11:16.342Z,28.20
2019-02-06T14:13:48.993Z,28.00
2019-02-06T14:16:21.727Z,27.70
2019-02-06T14:18:56.323Z,27.50
2019-02-06T14:21:28.693Z,27.30
2019-02-06T14:24:03.931Z,27.10
2019-02-06T14:26:50.847Z,27.00
2019-02-06T14:29:34.425Z,26.80
2019-02-06T14:32:21.390Z,26.60
2019-02-06T14:35:02.756Z,26.40
2019-02-06T14:37:43.519Z,26.30
2019-02-06T14:40:26.911Z,26.20
2019-02-06T14:43:14.228Z,26.00
2019-02-06T14:46:10.312Z,26.00
2019-02-06T14:48:54.626Z,25.90
2019-02-06T14:51:45.682Z,25.80
2019-02-06T14:54:35.479Z,25.80
2019-02-06T14:57:28.253Z,25.70
2019-02-06T15:00:15.842Z,25.60
2019-02-06T15:03:10.164Z,25.50
2019-02-06T15:05:53.871Z,25.30
2019-02-06T15:08:34.378Z,25.30
2019-02-06T15:11:20.139Z,25.20
2019-02-06T15:13:57.012Z,25.20
2019-02-06T15:16:35.305Z,25.60
2019-02-06T15:19:15.802Z,26.90
2019-02-06T15:22:17.628Z,28.40
2019-02-06T15:25:01.356Z,29.30
2019-02-06T15:27:48.314Z,29.40
2019-02-06T15:30:38.527Z,29.80
2019-02-06T15:33:16.885Z,30.10
2019-02-06T15:36:03.418Z,30.50
2019-02-06T15:38:47.401Z,30.70
2019-02-06T15:41:34.977Z,31.00
2019-02-06T15:44:12.658Z,32.30
2019-02-06T15:46:56.540Z,32.30
2019-02-06T15:49:38.106Z,31.60
2019-02-06T15:52:30.763Z,30.70
2019-02-06T15:55:23.900Z,30.50
2019-02-06T15:58:19.179Z,31.40
2019-02-06T16:01:10.440Z,32.40
2019-02-06T16:04:17.438Z,32.70
2019-02-06T16:06:59.676Z,33.00
2019-02-06T16:09:34.575Z,33.40
2019-02-06T16:12:25.064Z,33.80
2019-02-06T16:15:08.983Z,34.40
2019-02-06T16:17:56.226Z,35.00
2019-02-06T16:20:46.926Z,36.10
2019-02-06T16:23:41.621Z,36.50
2019-02-06T16:26:28.280Z,36.90
2019-02-06T16:29:23.821Z,37.60
2019-02-06T16:32:08.148Z,37.60
2019-02-06T16:34:48.980Z,37.60
2019-02-06T16:37:46.294Z,38.10
2019-02-06T16:40:27.052Z,38.20
2019-02-06T16:43:25.690Z,37.80
2019-02-06T16:46:30.195Z,40.60
2019-02-06T16:49:15.383Z,38.60
2019-02-06T16:51:50.471Z,36.80
2019-02-06T16:54:31.264Z,35.30
2019-02-06T16:57:12.001Z,34.00
2019-02-06T16:59:46.872Z,33.10
2019-02-06T17:02:41.077Z,32.30
2019-02-06T17:05:41.993Z,31.70
2019-02-06T17:08:34.723Z,30.80
2019-02-06T17:11:09.447Z,30.00
2019-02-06T17:14:06.485Z,29.60
2019-02-06T17:16:50.061Z,29.40
2019-02-06T17:19:56.772Z,30.30
2019-02-06T17:22:31.771Z,31.70
2019-02-06T17:25:12.284Z,33.80
2019-02-06T17:27:46.988Z,33.80
2019-02-06T17:30:38.316Z,34.10
2019-02-06T17:33:29.250Z,34.30
2019-02-06T17:36:04.320Z,34.40
2019-02-06T17:39:05.879Z,34.50
2019-02-06T17:41:53.910Z,34.70
2019-02-06T17:44:31.678Z,35.00
2019-02-06T17:47:09.685Z,35.20
2019-02-06T17:49:59.453Z,35.40
2019-02-06T17:52:37.198Z,35.70
2019-02-06T17:55:21.156Z,35.80
2019-02-06T17:57:55.347Z,35.90
2019-02-06T18:00:33.420Z,36.00
2019-02-06T18:03:08.090Z,36.20
2019-02-06T18:05:40.642Z,36.40
2019-02-06T18:08:12.984Z,36.80
2019-02-06T18:10:45.414Z,37.10
2019-02-06T18:13:18.035Z,37.30
2019-02-06T18:15:50.452Z,37.40
2019-02-06T18:18:22.816Z,37.40
2019-02-06T18:20:55.390Z,37.70
2019-02-06T18:23:27.863Z,37.80
2019-02-06T18:26:00.447Z,38.00
2019-02-06T18:28:32.731Z,38.30
2019-02-06T18:31:05.032Z,38.40
2019-02-06T18:33:37.314Z,38.50
2019-02-06T18:36:09.905Z,38.70
2019-02-06T18:38:46.842Z,38.80
2019-02-06T18:41:17.414Z,39.00
2019-02-06T18:43:49.674Z,38.90
2019-02-06T18:46:22.404Z,39.20
2019-02-06T18:48:54.798Z,39.50
2019-02-06T18:51:27.680Z,39.30
2019-02-06T18:54:00.351Z,39.30
2019-02-06T18:56:32.886Z,40.40
2019-02-06T18:59:07.202Z,40.70
2019-02-06T19:01:39.701Z,41.30
2019-02-06T19:04:13.444Z,42.10
2019-02-06T19:09:43.108Z,41.90
2019-02-06T19:12:15.757Z,41.00
2019-02-06T19:14:48.365Z,41.40
2019-02-06T19:17:20.744Z,40.60
2019-02-06T19:19:52.943Z,40.40
2019-02-06T19:22:25.106Z,41.10
2019-02-06T19:24:57.404Z,40.90
2019-02-06T19:27:29.886Z,40.10
2019-02-06T19:30:02.235Z,40.20
2019-02-06T19:32:35.066Z,39.70
2019-02-06T19:35:10.158Z,41.10
2019-02-06T19:37:42.537Z,40.50
2019-02-06T19:40:16.848Z,41.70
2019-02-06T19:42:58.856Z,42.40
2019-02-06T19:45:23.855Z,42.60
2019-02-06T19:47:56.433Z,42.80
2019-02-06T19:50:31.230Z,42.90
2019-02-06T19:53:03.809Z,42.90
2019-02-06T19:55:37.535Z,42.80
2019-02-06T19:58:10.968Z,42.70
2019-02-06T20:00:43.840Z,42.60
2019-02-06T20:03:16.721Z,42.60
2019-02-06T20:05:49.119Z,42.60
2019-02-06T20:08:21.587Z,42.40
2019-02-06T20:10:56.288Z,42.30
2019-02-06T20:13:29.224Z,42.20
2019-02-06T20:16:02.048Z,42.00
2019-02-06T20:18:34.889Z,41.90
2019-02-06T20:21:07.663Z,41.70
2019-02-06T20:23:40.641Z,41.60
2019-02-06T20:26:13.053Z,41.50
2019-02-06T20:28:45.743Z,41.40
2019-02-06T20:31:18.227Z,41.40
2019-02-06T20:33:50.775Z,41.30
2019-02-06T20:36:23.159Z,41.20
2019-02-06T20:38:55.677Z,41.20
2019-02-06T20:41:28.612Z,41.40
2019-02-06T20:44:01.438Z,41.50
2019-02-06T20:46:34.615Z,41.50
2019-02-06T20:49:07.399Z,41.60
2019-02-06T20:51:40.010Z,41.40
2019-02-06T20:54:13.811Z,41.50
2019-02-06T20:56:46.301Z,41.40
2019-02-06T20:59:18.847Z,41.30
2019-02-06T21:01:52.220Z,41.20
2019-02-06T21:04:24.758Z,41.10
2019-02-06T21:06:57.455Z,41.00
2019-02-06T21:09:29.803Z,40.90
2019-02-06T21:12:02.625Z,40.80
2019-02-06T21:14:35.857Z,40.80
2019-02-06T21:17:08.795Z,40.60
2019-02-06T21:19:41.132Z,40.50
2019-02-06T21:22:13.640Z,40.40
2019-02-06T21:24:46.018Z,40.40
2019-02-06T21:27:18.481Z,40.30
2019-02-06T21:29:51.360Z,40.20
2019-02-06T21:32:24.210Z,40.10
2019-02-06T21:34:56.553Z,40.10
2019-02-06T21:37:28.943Z,40.00
2019-02-06T21:40:01.762Z,39.90
2019-02-06T21:42:38.329Z,39.90
2019-02-06T21:45:12.793Z,39.80
2019-02-06T21:47:45.641Z,39.80
2019-02-06T21:50:20.175Z,39.70
2019-02-06T21:52:52.804Z,39.70
2019-02-06T21:55:26.350Z,39.70
2019-02-06T21:57:58.910Z,39.70
2019-02-06T22:00:36.640Z,39.60
2019-02-06T22:03:10.862Z,39.70
2019-02-06T22:05:43.714Z,39.50
2019-02-06T22:08:16.193Z,39.60
2019-02-06T22:10:48.984Z,39.50
2019-02-06T22:13:22.123Z,39.40
2019-02-06T22:15:54.978Z,39.30
2019-02-06T22:18:27.852Z,39.30
2019-02-06T22:21:00.408Z,39.30
2019-02-06T22:23:34.868Z,39.30
2019-02-06T22:26:07.230Z,39.30
2019-02-06T22:28:39.610Z,39.30
2019-02-06T22:31:11.986Z,39.30
2019-02-06T22:33:44.497Z,39.30
2019-02-06T22:36:17.047Z,39.30
2019-02-06T22:38:49.770Z,39.20
2019-02-06T22:41:22.732Z,39.20
2019-02-06T22:44:05.977Z,39.20
2019-02-06T22:46:29.009Z,39.20
2019-02-06T22:49:01.376Z,39.30
2019-02-06T22:51:34.119Z,38.90
2019-02-06T22:54:07.042Z,37.30
2019-02-06T22:56:41.151Z,35.70
2019-02-06T22:59:13.702Z,34.40
2019-02-06T23:01:47.884Z,33.20
2019-02-06T23:04:20.615Z,32.50
2019-02-06T23:06:53.385Z,33.60
2019-02-06T23:09:26.270Z,34.50
2019-02-06T23:11:59.118Z,35.20
2019-02-06T23:14:32.359Z,35.80
2019-02-06T23:17:06.286Z,36.30
2019-02-06T23:19:38.932Z,36.60
2019-02-06T23:22:11.489Z,37.00
2019-02-06T23:24:43.875Z,37.20
2019-02-06T23:27:16.686Z,37.40
2019-02-06T23:29:49.668Z,37.70
2019-02-06T23:32:22.328Z,37.90
2019-02-06T23:34:55.207Z,38.10
2019-02-06T23:37:27.971Z,38.20
2019-02-06T23:40:01.009Z,38.30
2019-02-06T23:42:44.518Z,38.40
2019-02-06T23:45:18.742Z,38.40
2019-02-06T23:47:51.503Z,38.60
2019-02-06T23:50:24.196Z,38.60
2019-02-06T23:52:57.070Z,38.60
2019-02-06T23:55:30.070Z,38.60
2019-02-06T23:58:03.502Z,38.70
